Port Hope, MI

19:06 EST le 06 Mars 2015 (GMT -0500)
Eastwatch-by-the-Sea | Change Station
CLOSE
Current Station
Stations météorologiques personnelles
Location: Port Hope, MI
Altitude: 565 ft
Stations météo à proximité

Alt. 565 ft 43.95 °N, 82.72 °W | Updated 5 seconds ago

Couvert
Couvert
23.7 ° F
Paraît 18 ° F
N
4.5
Vent Variable Vent de Sud
Gusts 8.3 mph

Aujourd'hui
Haut(e) -- | Bas -- ° F
--% Risque de précip.
Hier
Haut(e) -- | Bas -- ° F
Precip. -- pouce
6:59 AM 6:25 PM
Pleine lune, 99% visible
Pression 30.11 pouce
Visibilité 10.0 Miles terrestres
Nuages Nuages épars 7000 ft
Nuageux 8000 ft
Couvert 12000 ft
Refroidissement éolien 18 ° F
Point de rosée Non disponible.
Humidité Non disponible.
Précipitations pouce
Profondeur de la couche neigeuse Non disponible.
UV 0 sur 12
Pollen .50 sur 12
Qualité de l'air Non disponible.
Flu Activity Non disponible.
METAR KBAX 062355Z AUTO 21010KT 10SM SCT070 BKN080 OVC120 M05/M15 A3011 RMK AO2 T10501153 11041 21062

More Conditions Fewer Conditions

Pression 30.11 pouce
Visibilité 10.0 Miles terrestres
Nuages Nuages épars 7000 ft
Nuageux 8000 ft
Couvert 12000 ft
Refroidissement éolien 18 ° F
Point de rosée Non disponible.
Humidité Non disponible.
Précipitations pouce
Profondeur de la couche neigeuse Non disponible.
UV 0 sur 12
Pollen .50 sur 12
Qualité de l'air Non disponible.
Flu Activity Non disponible.
METAR KBAX 062355Z AUTO 21010KT 10SM SCT070 BKN080 OVC120 M05/M15 A3011 RMK AO2 T10501153 11041 21062

More Conditions Fewer Conditions

10-Day Weather Forecast

Almanac

Astronomie

Mar. 06, 2015 Lever Coucher
Temps réel
Crépuscule civil
Crépuscule nautique
Crépuscule astronomique
Lune
Durée de lumière visible
Longueur du jour
Tomorrow will be .
, % of the Moon is Illuminated

Extrêmes aujourd'hui

State Highs State Lows

Community

WunderPhotos

Upload Photos

1,803,460 Photos téléchargées !

WunderBlogs® & News

Nearby

Qualité de l'air

  Qualité de l'air Indice de la qualité de l'air Polluant
Not available.

Épaisseur de neige

Station Depth Altitude

Activité sismique

Ville Distance Mag. Time & Date
Minimum magnitude displayed is 2.5.

Températures des eaux côtières

Lieu Température

Stations météo à proximité